sensor_id;sensor_type;location;lat;lon;timestamp;P1;durP1;ratioP1;P2;durP2;ratioP2
21645;SDS011;10984;45.712;4.800;2022-12-11T00:00:41;11.30;;;5.72;;
21645;SDS011;10984;45.712;4.800;2022-12-11T00:03:06;11.07;;;5.40;;
21645;SDS011;10984;45.712;4.800;2022-12-11T00:05:32;8.85;;;4.43;;
21645;SDS011;10984;45.712;4.800;2022-12-11T00:07:58;11.35;;;5.28;;
21645;SDS011;10984;45.712;4.800;2022-12-11T00:10:24;12.55;;;5.68;;
21645;SDS011;10984;45.712;4.800;2022-12-11T00:12:50;12.45;;;6.03;;
21645;SDS011;10984;45.712;4.800;2022-12-11T00:15:16;10.82;;;5.45;;
21645;SDS011;10984;45.712;4.800;2022-12-11T00:17:42;10.38;;;5.05;;
21645;SDS011;10984;45.712;4.800;2022-12-11T00:20:08;10.75;;;4.75;;
21645;SDS011;10984;45.712;4.800;2022-12-11T00:22:34;12.73;;;5.43;;
21645;SDS011;10984;45.712;4.800;2022-12-11T00:24:59;9.88;;;4.43;;
21645;SDS011;10984;45.712;4.800;2022-12-11T00:27:25;11.25;;;5.43;;
21645;SDS011;10984;45.712;4.800;2022-12-11T00:29:51;12.02;;;5.93;;
21645;SDS011;10984;45.712;4.800;2022-12-11T00:32:16;10.63;;;5.63;;
21645;SDS011;10984;45.712;4.800;2022-12-11T00:34:42;10.07;;;4.95;;
21645;SDS011;10984;45.712;4.800;2022-12-11T00:37:08;13.82;;;6.00;;
21645;SDS011;10984;45.712;4.800;2022-12-11T00:39:35;9.50;;;5.07;;
21645;SDS011;10984;45.712;4.800;2022-12-11T00:42:01;10.90;;;4.88;;
21645;SDS011;10984;45.712;4.800;2022-12-11T00:44:27;11.85;;;5.72;;
21645;SDS011;10984;45.712;4.800;2022-12-11T00:46:53;12.30;;;5.70;;
21645;SDS011;10984;45.712;4.800;2022-12-11T00:49:18;10.90;;;5.07;;
21645;SDS011;10984;45.712;4.800;2022-12-11T00:51:44;12.10;;;4.93;;
21645;SDS011;10984;45.712;4.800;2022-12-11T00:54:10;14.18;;;5.57;;
21645;SDS011;10984;45.712;4.800;2022-12-11T00:56:35;13.88;;;5.40;;
21645;SDS011;10984;45.712;4.800;2022-12-11T00:59:01;11.18;;;5.07;;
21645;SDS011;10984;45.712;4.800;2022-12-11T01:01:26;11.52;;;4.63;;
21645;SDS011;10984;45.712;4.800;2022-12-11T01:03:52;11.95;;;4.45;;
21645;SDS011;10984;45.712;4.800;2022-12-11T01:06:19;10.43;;;5.05;;
21645;SDS011;10984;45.712;4.800;2022-12-11T01:08:48;7.95;;;4.38;;
21645;SDS011;10984;45.712;4.800;2022-12-11T01:11:33;11.68;;;4.88;;
21645;SDS011;10984;45.712;4.800;2022-12-11T01:13:59;14.70;;;5.20;;
21645;SDS011;10984;45.712;4.800;2022-12-11T01:16:24;10.63;;;4.88;;
21645;SDS011;10984;45.712;4.800;2022-12-11T01:18:50;10.35;;;4.40;;
21645;SDS011;10984;45.712;4.800;2022-12-11T01:21:16;10.35;;;4.63;;
21645;SDS011;10984;45.712;4.800;2022-12-11T01:23:41;9.82;;;4.10;;
21645;SDS011;10984;45.712;4.800;2022-12-11T01:26:08;12.10;;;5.63;;
21645;SDS011;10984;45.712;4.800;2022-12-11T01:28:54;11.27;;;5.50;;
21645;SDS011;10984;45.712;4.800;2022-12-11T01:31:20;10.90;;;5.05;;
21645;SDS011;10984;45.712;4.800;2022-12-11T01:33:46;11.05;;;4.97;;
21645;SDS011;10984;45.712;4.800;2022-12-11T01:38:56;10.10;;;4.85;;
21645;SDS011;10984;45.712;4.800;2022-12-11T01:41:22;9.98;;;4.68;;
21645;SDS011;10984;45.712;4.800;2022-12-11T01:46:52;9.63;;;4.60;;
21645;SDS011;10984;45.712;4.800;2022-12-11T01:49:19;10.75;;;4.68;;
21645;SDS011;10984;45.712;4.800;2022-12-11T01:54:35;10.80;;;4.75;;
21645;SDS011;10984;45.712;4.800;2022-12-11T01:57:02;10.07;;;4.88;;
21645;SDS011;10984;45.712;4.800;2022-12-11T01:59:31;9.57;;;4.20;;
21645;SDS011;10984;45.712;4.800;2022-12-11T02:04:46;11.15;;;4.85;;
21645;SDS011;10984;45.712;4.800;2022-12-11T02:07:13;11.23;;;4.65;;
21645;SDS011;10984;45.712;4.800;2022-12-11T02:09:39;10.05;;;4.35;;
21645;SDS011;10984;45.712;4.800;2022-12-11T02:26:50;10.40;;;4.60;;
21645;SDS011;10984;45.712;4.800;2022-12-11T02:29:38;13.50;;;4.88;;
21645;SDS011;10984;45.712;4.800;2022-12-11T02:32:13;11.80;;;5.00;;
21645;SDS011;10984;45.712;4.800;2022-12-11T02:34:45;10.57;;;4.93;;
21645;SDS011;10984;45.712;4.800;2022-12-11T02:37:24;10.15;;;5.38;;
21645;SDS011;10984;45.712;4.800;2022-12-11T02:39:53;10.25;;;4.90;;
21645;SDS011;10984;45.712;4.800;2022-12-11T02:42:20;10.40;;;5.25;;
21645;SDS011;10984;45.712;4.800;2022-12-11T02:44:49;11.88;;;5.00;;
21645;SDS011;10984;45.712;4.800;2022-12-11T02:47:16;9.55;;;4.45;;
21645;SDS011;10984;45.712;4.800;2022-12-11T02:49:45;9.90;;;4.32;;
21645;SDS011;10984;45.712;4.800;2022-12-11T02:52:13;8.57;;;4.60;;
21645;SDS011;10984;45.712;4.800;2022-12-11T02:54:43;9.88;;;4.93;;
21645;SDS011;10984;45.712;4.800;2022-12-11T02:59:58;9.43;;;4.35;;
21645;SDS011;10984;45.712;4.800;2022-12-11T03:02:24;10.75;;;4.78;;
21645;SDS011;10984;45.712;4.800;2022-12-11T03:04:49;11.52;;;4.82;;
21645;SDS011;10984;45.712;4.800;2022-12-11T03:10:03;10.00;;;4.30;;
21645;SDS011;10984;45.712;4.800;2022-12-11T03:12:32;11.13;;;5.38;;
21645;SDS011;10984;45.712;4.800;2022-12-11T03:15:01;9.73;;;4.97;;
21645;SDS011;10984;45.712;4.800;2022-12-11T03:20:36;11.20;;;4.82;;
21645;SDS011;10984;45.712;4.800;2022-12-11T03:23:22;12.57;;;5.68;;
21645;SDS011;10984;45.712;4.800;2022-12-11T03:25:57;12.40;;;4.82;;
21645;SDS011;10984;45.712;4.800;2022-12-11T03:31:37;11.32;;;4.95;;
21645;SDS011;10984;45.712;4.800;2022-12-11T03:34:09;8.70;;;4.13;;
21645;SDS011;10984;45.712;4.800;2022-12-11T03:36:43;8.27;;;4.03;;
21645;SDS011;10984;45.712;4.800;2022-12-11T03:39:12;7.97;;;4.05;;
21645;SDS011;10984;45.712;4.800;2022-12-11T03:41:43;9.93;;;4.68;;
21645;SDS011;10984;45.712;4.800;2022-12-11T03:44:11;10.68;;;4.85;;
21645;SDS011;10984;45.712;4.800;2022-12-11T03:46:37;10.95;;;5.40;;
21645;SDS011;10984;45.712;4.800;2022-12-11T03:49:25;11.35;;;4.30;;
21645;SDS011;10984;45.712;4.800;2022-12-11T03:51:52;11.57;;;5.00;;
21645;SDS011;10984;45.712;4.800;2022-12-11T03:54:20;9.50;;;4.50;;
21645;SDS011;10984;45.712;4.800;2022-12-11T03:56:48;9.90;;;4.05;;
21645;SDS011;10984;45.712;4.800;2022-12-11T03:59:17;7.80;;;4.10;;
21645;SDS011;10984;45.712;4.800;2022-12-11T04:01:43;8.07;;;3.83;;
21645;SDS011;10984;45.712;4.800;2022-12-11T04:04:08;8.70;;;4.53;;
21645;SDS011;10984;45.712;4.800;2022-12-11T04:06:34;10.80;;;4.53;;
21645;SDS011;10984;45.712;4.800;2022-12-11T04:09:00;9.30;;;4.22;;
21645;SDS011;10984;45.712;4.800;2022-12-11T04:11:25;9.77;;;4.53;;
21645;SDS011;10984;45.712;4.800;2022-12-11T04:14:10;9.18;;;3.33;;
21645;SDS011;10984;45.712;4.800;2022-12-11T04:16:56;10.00;;;4.60;;
21645;SDS011;10984;45.712;4.800;2022-12-11T04:19:23;7.55;;;3.95;;
21645;SDS011;10984;45.712;4.800;2022-12-11T04:22:09;9.95;;;4.45;;
21645;SDS011;10984;45.712;4.800;2022-12-11T04:24:54;9.40;;;4.28;;
21645;SDS011;10984;45.712;4.800;2022-12-11T04:27:20;8.38;;;3.97;;
21645;SDS011;10984;45.712;4.800;2022-12-11T04:30:05;10.40;;;5.03;;
21645;SDS011;10984;45.712;4.800;2022-12-11T04:32:32;8.98;;;4.07;;
21645;SDS011;10984;45.712;4.800;2022-12-11T04:34:58;9.43;;;4.55;;
21645;SDS011;10984;45.712;4.800;2022-12-11T04:37:25;9.63;;;5.35;;
21645;SDS011;10984;45.712;4.800;2022-12-11T04:39:51;14.27;;;5.00;;
21645;SDS011;10984;45.712;4.800;2022-12-11T04:42:17;9.88;;;4.43;;
21645;SDS011;10984;45.712;4.800;2022-12-11T04:44:42;8.88;;;4.20;;
21645;SDS011;10984;45.712;4.800;2022-12-11T04:47:08;10.20;;;4.72;;
21645;SDS011;10984;45.712;4.800;2022-12-11T04:49:34;9.93;;;4.13;;
21645;SDS011;10984;45.712;4.800;2022-12-11T04:51:59;10.40;;;5.10;;
21645;SDS011;10984;45.712;4.800;2022-12-11T04:54:25;10.13;;;4.22;;
21645;SDS011;10984;45.712;4.800;2022-12-11T04:56:52;13.38;;;4.63;;
21645;SDS011;10984;45.712;4.800;2022-12-11T04:59:18;12.23;;;4.25;;
21645;SDS011;10984;45.712;4.800;2022-12-11T05:01:44;9.35;;;4.38;;
21645;SDS011;10984;45.712;4.800;2022-12-11T05:04:09;8.57;;;3.80;;
21645;SDS011;10984;45.712;4.800;2022-12-11T05:06:35;11.95;;;5.63;;
21645;SDS011;10984;45.712;4.800;2022-12-11T05:09:01;12.10;;;6.00;;
21645;SDS011;10984;45.712;4.800;2022-12-11T05:11:27;10.68;;;5.07;;
21645;SDS011;10984;45.712;4.800;2022-12-11T05:13:52;8.70;;;4.30;;
21645;SDS011;10984;45.712;4.800;2022-12-11T05:16:18;11.77;;;5.13;;
21645;SDS011;10984;45.712;4.800;2022-12-11T05:18:44;9.45;;;4.80;;
21645;SDS011;10984;45.712;4.800;2022-12-11T05:21:12;9.65;;;4.20;;
21645;SDS011;10984;45.712;4.800;2022-12-11T05:23:39;10.18;;;4.63;;
21645;SDS011;10984;45.712;4.800;2022-12-11T05:26:06;11.77;;;5.93;;
21645;SDS011;10984;45.712;4.800;2022-12-11T05:28:36;12.18;;;5.68;;
21645;SDS011;10984;45.712;4.800;2022-12-11T05:31:04;11.55;;;5.57;;
21645;SDS011;10984;45.712;4.800;2022-12-11T05:33:49;11.60;;;5.30;;
21645;SDS011;10984;45.712;4.800;2022-12-11T05:39:00;8.93;;;4.45;;
21645;SDS011;10984;45.712;4.800;2022-12-11T05:41:27;8.43;;;4.63;;
21645;SDS011;10984;45.712;4.800;2022-12-11T05:43:54;10.15;;;4.47;;
21645;SDS011;10984;45.712;4.800;2022-12-11T05:49:04;9.80;;;4.35;;
21645;SDS011;10984;45.712;4.800;2022-12-11T05:51:30;10.93;;;5.35;;
21645;SDS011;10984;45.712;4.800;2022-12-11T05:54:15;17.02;;;5.47;;
21645;SDS011;10984;45.712;4.800;2022-12-11T05:56:41;8.88;;;4.15;;
21645;SDS011;10984;45.712;4.800;2022-12-11T05:59:06;9.40;;;4.40;;
21645;SDS011;10984;45.712;4.800;2022-12-11T06:01:36;12.68;;;4.72;;
21645;SDS011;10984;45.712;4.800;2022-12-11T06:04:04;7.95;;;3.97;;
21645;SDS011;10984;45.712;4.800;2022-12-11T06:06:32;10.52;;;5.18;;
21645;SDS011;10984;45.712;4.800;2022-12-11T06:08:58;10.88;;;5.03;;
21645;SDS011;10984;45.712;4.800;2022-12-11T06:11:25;11.52;;;4.53;;
21645;SDS011;10984;45.712;4.800;2022-12-11T06:13:52;13.85;;;5.35;;
21645;SDS011;10984;45.712;4.800;2022-12-11T06:16:19;13.50;;;5.38;;
21645;SDS011;10984;45.712;4.800;2022-12-11T06:18:45;10.70;;;4.45;;
21645;SDS011;10984;45.712;4.800;2022-12-11T06:23:57;13.32;;;5.57;;
21645;SDS011;10984;45.712;4.800;2022-12-11T06:26:24;12.50;;;5.68;;
21645;SDS011;10984;45.712;4.800;2022-12-11T06:28:51;9.57;;;4.53;;
21645;SDS011;10984;45.712;4.800;2022-12-11T06:31:17;12.57;;;4.53;;
21645;SDS011;10984;45.712;4.800;2022-12-11T06:33:44;10.23;;;4.75;;
21645;SDS011;10984;45.712;4.800;2022-12-11T06:36:11;11.82;;;5.22;;
21645;SDS011;10984;45.712;4.800;2022-12-11T06:38:40;9.30;;;4.25;;
21645;SDS011;10984;45.712;4.800;2022-12-11T06:41:06;12.18;;;4.95;;
21645;SDS011;10984;45.712;4.800;2022-12-11T06:43:33;11.02;;;4.43;;
21645;SDS011;10984;45.712;4.800;2022-12-11T06:46:02;8.95;;;4.63;;
21645;SDS011;10984;45.712;4.800;2022-12-11T06:48:31;8.15;;;4.07;;
21645;SDS011;10984;45.712;4.800;2022-12-11T06:50:57;11.07;;;4.22;;
21645;SDS011;10984;45.712;4.800;2022-12-11T06:53:22;11.00;;;4.75;;
21645;SDS011;10984;45.712;4.800;2022-12-11T06:55:48;13.25;;;4.72;;
21645;SDS011;10984;45.712;4.800;2022-12-11T06:58:14;13.23;;;5.38;;
21645;SDS011;10984;45.712;4.800;2022-12-11T07:00:39;10.25;;;4.70;;
21645;SDS011;10984;45.712;4.800;2022-12-11T07:03:05;11.15;;;5.18;;
21645;SDS011;10984;45.712;4.800;2022-12-11T07:05:31;15.23;;;5.80;;
21645;SDS011;10984;45.712;4.800;2022-12-11T07:07:57;11.02;;;4.63;;
21645;SDS011;10984;45.712;4.800;2022-12-11T07:10:23;10.20;;;4.88;;
21645;SDS011;10984;45.712;4.800;2022-12-11T07:12:51;10.82;;;4.32;;
21645;SDS011;10984;45.712;4.800;2022-12-11T07:15:17;9.65;;;4.53;;
21645;SDS011;10984;45.712;4.800;2022-12-11T07:17:43;8.52;;;4.18;;
21645;SDS011;10984;45.712;4.800;2022-12-11T07:20:08;11.52;;;4.95;;
21645;SDS011;10984;45.712;4.800;2022-12-11T07:22:34;10.23;;;4.53;;
21645;SDS011;10984;45.712;4.800;2022-12-11T07:25:00;13.70;;;4.75;;
21645;SDS011;10984;45.712;4.800;2022-12-11T07:27:26;9.07;;;4.50;;
21645;SDS011;10984;45.712;4.800;2022-12-11T07:29:52;12.73;;;5.15;;
21645;SDS011;10984;45.712;4.800;2022-12-11T07:32:19;13.45;;;5.55;;
21645;SDS011;10984;45.712;4.800;2022-12-11T07:34:45;11.73;;;5.45;;
21645;SDS011;10984;45.712;4.800;2022-12-11T07:37:12;10.90;;;4.18;;
21645;SDS011;10984;45.712;4.800;2022-12-11T07:39:38;9.25;;;4.90;;
21645;SDS011;10984;45.712;4.800;2022-12-11T07:42:04;11.07;;;4.95;;
21645;SDS011;10984;45.712;4.800;2022-12-11T07:44:29;9.50;;;5.05;;
21645;SDS011;10984;45.712;4.800;2022-12-11T07:46:55;10.95;;;4.28;;
21645;SDS011;10984;45.712;4.800;2022-12-11T07:49:21;11.93;;;5.00;;
21645;SDS011;10984;45.712;4.800;2022-12-11T07:51:46;11.82;;;5.50;;
21645;SDS011;10984;45.712;4.800;2022-12-11T07:54:14;12.23;;;4.53;;
21645;SDS011;10984;45.712;4.800;2022-12-11T07:56:41;11.98;;;5.55;;
21645;SDS011;10984;45.712;4.800;2022-12-11T07:59:08;12.68;;;5.47;;
21645;SDS011;10984;45.712;4.800;2022-12-11T08:01:35;14.95;;;5.85;;
21645;SDS011;10984;45.712;4.800;2022-12-11T08:04:03;14.40;;;6.03;;
21645;SDS011;10984;45.712;4.800;2022-12-11T08:06:31;13.23;;;5.78;;
21645;SDS011;10984;45.712;4.800;2022-12-11T08:09:00;15.73;;;6.90;;
21645;SDS011;10984;45.712;4.800;2022-12-11T08:11:27;13.82;;;6.65;;
21645;SDS011;10984;45.712;4.800;2022-12-11T08:13:53;15.32;;;7.18;;
21645;SDS011;10984;45.712;4.800;2022-12-11T08:16:19;13.18;;;6.32;;
21645;SDS011;10984;45.712;4.800;2022-12-11T08:18:46;16.75;;;7.80;;
21645;SDS011;10984;45.712;4.800;2022-12-11T08:21:13;16.15;;;7.10;;
21645;SDS011;10984;45.712;4.800;2022-12-11T08:23:57;13.68;;;6.63;;
21645;SDS011;10984;45.712;4.800;2022-12-11T08:26:27;15.32;;;6.22;;
21645;SDS011;10984;45.712;4.800;2022-12-11T08:28:54;14.10;;;5.55;;
21645;SDS011;10984;45.712;4.800;2022-12-11T08:31:20;12.90;;;6.40;;
21645;SDS011;10984;45.712;4.800;2022-12-11T08:33:46;12.43;;;6.22;;
21645;SDS011;10984;45.712;4.800;2022-12-11T08:36:14;11.85;;;5.70;;
21645;SDS011;10984;45.712;4.800;2022-12-11T08:38:41;12.48;;;5.75;;
21645;SDS011;10984;45.712;4.800;2022-12-11T08:43:53;14.98;;;5.93;;
21645;SDS011;10984;45.712;4.800;2022-12-11T08:46:23;14.55;;;6.80;;
21645;SDS011;10984;45.712;4.800;2022-12-11T08:48:51;14.00;;;5.57;;
21645;SDS011;10984;45.712;4.800;2022-12-11T08:51:19;11.70;;;5.72;;
21645;SDS011;10984;45.712;4.800;2022-12-11T08:53:46;13.00;;;5.32;;
21645;SDS011;10984;45.712;4.800;2022-12-11T08:56:13;10.55;;;4.80;;
21645;SDS011;10984;45.712;4.800;2022-12-11T08:58:41;14.00;;;5.85;;
21645;SDS011;10984;45.712;4.800;2022-12-11T09:01:09;12.13;;;6.20;;
21645;SDS011;10984;45.712;4.800;2022-12-11T09:03:46;12.15;;;5.40;;
21645;SDS011;10984;45.712;4.800;2022-12-11T09:06:14;12.50;;;6.07;;
21645;SDS011;10984;45.712;4.800;2022-12-11T09:08:42;11.45;;;6.38;;
21645;SDS011;10984;45.712;4.800;2022-12-11T09:13:54;12.45;;;6.10;;
21645;SDS011;10984;45.712;4.800;2022-12-11T09:16:21;12.02;;;5.80;;
21645;SDS011;10984;45.712;4.800;2022-12-11T09:18:49;12.07;;;5.28;;
21645;SDS011;10984;45.712;4.800;2022-12-11T09:21:17;11.80;;;5.75;;
21645;SDS011;10984;45.712;4.800;2022-12-11T09:23:45;15.77;;;6.18;;
21645;SDS011;10984;45.712;4.800;2022-12-11T09:26:12;14.18;;;6.60;;
21645;SDS011;10984;45.712;4.800;2022-12-11T09:28:39;10.05;;;5.35;;
21645;SDS011;10984;45.712;4.800;2022-12-11T09:33:53;16.80;;;7.00;;
21645;SDS011;10984;45.712;4.800;2022-12-11T09:36:20;13.45;;;6.10;;
21645;SDS011;10984;45.712;4.800;2022-12-11T09:38:46;16.40;;;6.35;;
21645;SDS011;10984;45.712;4.800;2022-12-11T09:47:20;14.20;;;5.88;;
21645;SDS011;10984;45.712;4.800;2022-12-11T09:49:48;13.32;;;5.63;;
21645;SDS011;10984;45.712;4.800;2022-12-11T09:52:50;12.60;;;5.80;;
21645;SDS011;10984;45.712;4.800;2022-12-11T09:55:09;13.60;;;5.57;;
21645;SDS011;10984;45.712;4.800;2022-12-11T10:05:49;10.93;;;5.03;;
21645;SDS011;10984;45.712;4.800;2022-12-11T10:17:45;14.48;;;7.38;;
21645;SDS011;10984;45.712;4.800;2022-12-11T10:23:00;14.57;;;6.50;;
21645;SDS011;10984;45.712;4.800;2022-12-11T10:25:30;12.93;;;6.10;;
21645;SDS011;10984;45.712;4.800;2022-12-11T10:27:59;13.45;;;6.53;;
21645;SDS011;10984;45.712;4.800;2022-12-11T10:30:56;15.80;;;6.88;;
21645;SDS011;10984;45.712;4.800;2022-12-11T10:39:11;18.35;;;7.60;;
21645;SDS011;10984;45.712;4.800;2022-12-11T10:41:43;15.43;;;7.25;;
21645;SDS011;10984;45.712;4.800;2022-12-11T10:44:29;18.77;;;6.70;;
21645;SDS011;10984;45.712;4.800;2022-12-11T10:52:36;16.50;;;7.28;;
21645;SDS011;10984;45.712;4.800;2022-12-11T10:55:16;17.30;;;7.07;;
21645;SDS011;10984;45.712;4.800;2022-12-11T10:57:43;20.40;;;7.90;;
21645;SDS011;10984;45.712;4.800;2022-12-11T11:11:29;17.65;;;7.80;;
21645;SDS011;10984;45.712;4.800;2022-12-11T11:14:18;15.00;;;7.10;;
21645;SDS011;10984;45.712;4.800;2022-12-11T11:16:48;17.48;;;8.38;;
21645;SDS011;10984;45.712;4.800;2022-12-11T11:19:17;21.35;;;8.90;;
21645;SDS011;10984;45.712;4.800;2022-12-11T11:27:43;18.88;;;8.02;;
21645;SDS011;10984;45.712;4.800;2022-12-11T11:47:42;20.92;;;8.52;;
21645;SDS011;10984;45.712;4.800;2022-12-11T11:50:18;14.93;;;7.07;;
21645;SDS011;10984;45.712;4.800;2022-12-11T12:01:50;16.48;;;7.80;;
21645;SDS011;10984;45.712;4.800;2022-12-11T12:04:20;18.52;;;8.35;;
21645;SDS011;10984;45.712;4.800;2022-12-11T12:09:52;16.58;;;8.45;;
21645;SDS011;10984;45.712;4.800;2022-12-11T12:15:28;15.93;;;7.70;;
21645;SDS011;10984;45.712;4.800;2022-12-11T12:18:19;16.27;;;7.20;;
21645;SDS011;10984;45.712;4.800;2022-12-11T12:30:16;19.02;;;8.93;;
21645;SDS011;10984;45.712;4.800;2022-12-11T12:40:31;18.88;;;8.70;;
21645;SDS011;10984;45.712;4.800;2022-12-11T12:49:10;18.17;;;7.85;;
21645;SDS011;10984;45.712;4.800;2022-12-11T12:51:40;16.00;;;7.68;;
21645;SDS011;10984;45.712;4.800;2022-12-11T12:54:08;16.83;;;6.93;;
21645;SDS011;10984;45.712;4.800;2022-12-11T12:56:38;22.40;;;8.98;;
21645;SDS011;10984;45.712;4.800;2022-12-11T13:01:53;15.77;;;8.38;;
21645;SDS011;10984;45.712;4.800;2022-12-11T13:12:57;16.90;;;8.93;;
21645;SDS011;10984;45.712;4.800;2022-12-11T13:20:54;17.35;;;7.70;;
21645;SDS011;10984;45.712;4.800;2022-12-11T13:26:04;16.55;;;7.82;;
21645;SDS011;10984;45.712;4.800;2022-12-11T13:39:30;25.42;;;10.80;;
21645;SDS011;10984;45.712;4.800;2022-12-11T13:42:00;18.33;;;8.32;;
21645;SDS011;10984;45.712;4.800;2022-12-11T13:44:29;21.88;;;10.02;;
21645;SDS011;10984;45.712;4.800;2022-12-11T13:47:02;19.52;;;8.60;;
21645;SDS011;10984;45.712;4.800;2022-12-11T13:49:33;18.33;;;8.60;;
21645;SDS011;10984;45.712;4.800;2022-12-11T13:52:01;18.77;;;8.77;;
21645;SDS011;10984;45.712;4.800;2022-12-11T13:54:28;18.90;;;8.65;;
21645;SDS011;10984;45.712;4.800;2022-12-11T13:59:59;17.95;;;8.75;;
21645;SDS011;10984;45.712;4.800;2022-12-11T14:05:09;22.98;;;9.75;;
21645;SDS011;10984;45.712;4.800;2022-12-11T14:10:24;19.10;;;8.32;;
21645;SDS011;10984;45.712;4.800;2022-12-11T14:12:52;16.55;;;7.90;;
21645;SDS011;10984;45.712;4.800;2022-12-11T14:15:39;16.42;;;8.02;;
21645;SDS011;10984;45.712;4.800;2022-12-11T14:18:12;18.67;;;8.10;;
21645;SDS011;10984;45.712;4.800;2022-12-11T14:20:41;23.67;;;10.02;;
21645;SDS011;10984;45.712;4.800;2022-12-11T14:25:55;21.67;;;10.18;;
21645;SDS011;10984;45.712;4.800;2022-12-11T14:28:23;19.38;;;9.23;;
21645;SDS011;10984;45.712;4.800;2022-12-11T14:30:52;19.73;;;8.82;;
21645;SDS011;10984;45.712;4.800;2022-12-11T14:33:21;22.77;;;9.15;;
21645;SDS011;10984;45.712;4.800;2022-12-11T14:35:48;20.52;;;9.52;;
21645;SDS011;10984;45.712;4.800;2022-12-11T14:44:11;20.45;;;9.15;;
21645;SDS011;10984;45.712;4.800;2022-12-11T14:52:30;22.90;;;8.68;;
21645;SDS011;10984;45.712;4.800;2022-12-11T14:57:50;19.92;;;8.45;;
21645;SDS011;10984;45.712;4.800;2022-12-11T15:00:40;17.35;;;7.72;;
21645;SDS011;10984;45.712;4.800;2022-12-11T15:05:55;30.42;;;11.70;;
21645;SDS011;10984;45.712;4.800;2022-12-11T15:11:07;22.55;;;10.55;;
21645;SDS011;10984;45.712;4.800;2022-12-11T15:13:35;20.58;;;9.57;;
21645;SDS011;10984;45.712;4.800;2022-12-11T15:16:12;19.83;;;8.35;;
21645;SDS011;10984;45.712;4.800;2022-12-11T15:18:39;19.92;;;8.38;;
21645;SDS011;10984;45.712;4.800;2022-12-11T15:21:07;27.60;;;12.05;;
21645;SDS011;10984;45.712;4.800;2022-12-11T15:26:31;21.80;;;8.98;;
21645;SDS011;10984;45.712;4.800;2022-12-11T15:40:50;24.77;;;9.27;;
21645;SDS011;10984;45.712;4.800;2022-12-11T15:43:15;22.90;;;9.93;;
21645;SDS011;10984;45.712;4.800;2022-12-11T15:45:41;19.15;;;9.15;;
21645;SDS011;10984;45.712;4.800;2022-12-11T15:48:07;23.13;;;10.82;;
21645;SDS011;10984;45.712;4.800;2022-12-11T15:50:35;26.52;;;10.63;;
21645;SDS011;10984;45.712;4.800;2022-12-11T15:53:01;23.30;;;9.88;;
21645;SDS011;10984;45.712;4.800;2022-12-11T15:55:26;23.27;;;10.02;;
21645;SDS011;10984;45.712;4.800;2022-12-11T15:57:59;24.92;;;11.25;;
21645;SDS011;10984;45.712;4.800;2022-12-11T16:00:27;23.00;;;10.52;;
21645;SDS011;10984;45.712;4.800;2022-12-11T16:02:53;21.02;;;10.25;;
21645;SDS011;10984;45.712;4.800;2022-12-11T16:05:19;20.65;;;9.50;;
21645;SDS011;10984;45.712;4.800;2022-12-11T16:07:46;22.77;;;9.43;;
21645;SDS011;10984;45.712;4.800;2022-12-11T16:12:56;20.77;;;9.20;;
21645;SDS011;10984;45.712;4.800;2022-12-11T16:15:24;22.38;;;7.93;;
21645;SDS011;10984;45.712;4.800;2022-12-11T16:20:36;23.95;;;9.32;;
21645;SDS011;10984;45.712;4.800;2022-12-11T16:23:03;22.30;;;9.52;;
21645;SDS011;10984;45.712;4.800;2022-12-11T16:25:30;26.05;;;10.43;;
21645;SDS011;10984;45.712;4.800;2022-12-11T16:27:57;25.30;;;10.65;;
21645;SDS011;10984;45.712;4.800;2022-12-11T16:30:24;26.48;;;10.35;;
21645;SDS011;10984;45.712;4.800;2022-12-11T16:32:51;25.55;;;10.90;;
21645;SDS011;10984;45.712;4.800;2022-12-11T16:35:18;26.10;;;10.75;;
21645;SDS011;10984;45.712;4.800;2022-12-11T16:37:44;22.10;;;9.20;;
21645;SDS011;10984;45.712;4.800;2022-12-11T16:40:14;22.85;;;9.73;;
21645;SDS011;10984;45.712;4.800;2022-12-11T16:42:40;26.60;;;10.15;;
21645;SDS011;10984;45.712;4.800;2022-12-11T16:45:07;26.85;;;9.73;;
21645;SDS011;10984;45.712;4.800;2022-12-11T16:47:36;25.10;;;10.20;;
21645;SDS011;10984;45.712;4.800;2022-12-11T16:50:02;23.30;;;10.32;;
21645;SDS011;10984;45.712;4.800;2022-12-11T16:52:28;20.30;;;8.90;;
21645;SDS011;10984;45.712;4.800;2022-12-11T16:54:55;23.13;;;9.85;;
21645;SDS011;10984;45.712;4.800;2022-12-11T16:57:21;19.85;;;8.82;;
21645;SDS011;10984;45.712;4.800;2022-12-11T16:59:47;21.42;;;9.90;;
21645;SDS011;10984;45.712;4.800;2022-12-11T17:02:12;22.27;;;9.60;;
21645;SDS011;10984;45.712;4.800;2022-12-11T17:04:38;26.13;;;10.60;;
21645;SDS011;10984;45.712;4.800;2022-12-11T17:07:04;25.33;;;10.75;;
21645;SDS011;10984;45.712;4.800;2022-12-11T17:09:30;27.98;;;9.60;;
21645;SDS011;10984;45.712;4.800;2022-12-11T17:11:57;22.77;;;8.90;;
21645;SDS011;10984;45.712;4.800;2022-12-11T17:14:23;27.20;;;10.43;;
21645;SDS011;10984;45.712;4.800;2022-12-11T17:16:49;21.40;;;8.98;;
21645;SDS011;10984;45.712;4.800;2022-12-11T17:19:14;28.15;;;11.55;;
21645;SDS011;10984;45.712;4.800;2022-12-11T17:21:40;22.98;;;9.57;;
21645;SDS011;10984;45.712;4.800;2022-12-11T17:24:07;21.90;;;10.18;;
21645;SDS011;10984;45.712;4.800;2022-12-11T17:26:34;29.45;;;11.02;;
21645;SDS011;10984;45.712;4.800;2022-12-11T17:29:01;25.65;;;10.75;;
21645;SDS011;10984;45.712;4.800;2022-12-11T17:31:27;28.83;;;11.20;;
21645;SDS011;10984;45.712;4.800;2022-12-11T17:33:53;25.00;;;10.75;;
21645;SDS011;10984;45.712;4.800;2022-12-11T17:36:21;23.02;;;9.73;;
21645;SDS011;10984;45.712;4.800;2022-12-11T17:38:47;28.27;;;11.80;;
21645;SDS011;10984;45.712;4.800;2022-12-11T17:41:13;32.17;;;12.55;;
21645;SDS011;10984;45.712;4.800;2022-12-11T17:43:40;28.35;;;12.55;;
21645;SDS011;10984;45.712;4.800;2022-12-11T17:46:07;27.67;;;11.82;;
21645;SDS011;10984;45.712;4.800;2022-12-11T17:48:35;20.63;;;10.60;;
21645;SDS011;10984;45.712;4.800;2022-12-11T17:51:05;26.50;;;10.60;;
21645;SDS011;10984;45.712;4.800;2022-12-11T17:53:32;25.65;;;10.35;;
21645;SDS011;10984;45.712;4.800;2022-12-11T17:55:59;23.35;;;10.35;;
21645;SDS011;10984;45.712;4.800;2022-12-11T17:58:26;26.25;;;11.45;;
21645;SDS011;10984;45.712;4.800;2022-12-11T18:00:52;24.70;;;10.80;;
21645;SDS011;10984;45.712;4.800;2022-12-11T18:03:20;30.20;;;12.70;;
21645;SDS011;10984;45.712;4.800;2022-12-11T18:05:47;23.90;;;10.90;;
21645;SDS011;10984;45.712;4.800;2022-12-11T18:08:18;25.02;;;12.05;;
21645;SDS011;10984;45.712;4.800;2022-12-11T18:10:54;26.30;;;11.98;;
21645;SDS011;10984;45.712;4.800;2022-12-11T18:13:20;23.30;;;11.43;;
21645;SDS011;10984;45.712;4.800;2022-12-11T18:15:47;24.33;;;10.95;;
21645;SDS011;10984;45.712;4.800;2022-12-11T18:18:24;24.70;;;11.65;;
21645;SDS011;10984;45.712;4.800;2022-12-11T18:20:50;24.30;;;11.48;;
21645;SDS011;10984;45.712;4.800;2022-12-11T18:23:15;30.55;;;13.05;;
21645;SDS011;10984;45.712;4.800;2022-12-11T18:25:41;24.35;;;11.35;;
21645;SDS011;10984;45.712;4.800;2022-12-11T18:28:07;26.48;;;11.18;;
21645;SDS011;10984;45.712;4.800;2022-12-11T18:30:32;25.00;;;10.98;;
21645;SDS011;10984;45.712;4.800;2022-12-11T18:32:58;35.00;;;15.32;;
21645;SDS011;10984;45.712;4.800;2022-12-11T18:35:23;24.92;;;11.05;;
21645;SDS011;10984;45.712;4.800;2022-12-11T18:37:49;29.80;;;11.73;;
21645;SDS011;10984;45.712;4.800;2022-12-11T18:40:15;24.42;;;10.48;;
21645;SDS011;10984;45.712;4.800;2022-12-11T18:42:40;25.08;;;10.43;;
21645;SDS011;10984;45.712;4.800;2022-12-11T18:45:06;25.80;;;10.82;;
21645;SDS011;10984;45.712;4.800;2022-12-11T18:47:32;33.28;;;10.18;;